CDD3 weather

Ste-Agnès-de-Dundee Airport
Ste-Agnès-de-Dundee, Quebec, Canada

Public forecast

Using degrees Celsius for public forecast. Weather courtesy of forecast.io.

Closest aviation weather report (METAR) to Ste-Agnès-de-Dundee Airport

Closest report is Massena International Richards Field, 22.4 nm (41.4 km) WSW. Retrieved 2020/06/01 07:53 UTC (44 minutes ago):

KMSS 010753Z AUTO 00000KT 10SM OVC095 04/02 A3018 RMK AO2 SLP222 T00390022

Closest aviation forecast (TAF) to Ste-Agnès-de-Dundee Airport

Closest forecast is Massena International Richards Field, 22.4 nm (41.4 km) WSW. Retrieved 2020/06/01 06:27 UTC (2 hours ago):

TAF KMSS 010524Z 0106/0206 00000KT P6SM SCT080 FM011300 23007KT P6SM SCT080 FM011700 24009KT P6SM VCSH BKN050 FM020000 00000KT P6SM BKN080